Medburyville, Vermont
Current Conditions -  °F | °C
As of 3:54 PM on Saturday 22 Nov 2014 (Local Time) from KDDH Reporting Station
Overcast Overcast  
Wind Chill: 33°   Ceiling: 4400
Heat Index: 38°   Visibility: 10mi
Dew Point:   Wind: 7mph
Humidity: 30%   Direction: 170°S
Pressure: 30.08"   Gusts: NA
Location:  42.883°N, 72.8981°W
Report Text: KDDH 222054Z AUTO 17006KT 10SM BKN044 OVC060 03/M13 A3008 RMK AO2 PRESFR SLP195 T00331128 56026
Loading
Personal Weather Stations






























Interactive Weather Map New forecast layout! Learn more

10-Day Weather Forecast

Advertisements
Track Severe Weather on mobile